createdAt,value
2019-05-15T06:00:31.718Z,9.58
2019-05-15T06:01:31.641Z,9.52
2019-05-15T06:02:43.856Z,9.60
2019-05-15T06:03:32.655Z,9.64
2019-05-15T06:04:31.643Z,9.79
2019-05-15T06:05:31.606Z,9.85
2019-05-15T06:06:31.599Z,9.94
2019-05-15T06:07:31.574Z,10.07
2019-05-15T06:09:48.634Z,10.10
2019-05-15T06:10:49.516Z,10.18
2019-05-15T06:11:48.843Z,10.22
2019-05-15T06:12:49.042Z,10.21
2019-05-15T06:13:52.383Z,10.25
2019-05-15T06:14:48.515Z,10.33
2019-05-15T06:15:48.765Z,10.39
2019-05-15T06:16:48.309Z,10.42
2019-05-15T06:17:48.188Z,10.40
2019-05-15T06:18:49.138Z,10.44
2019-05-15T06:19:48.214Z,10.58
2019-05-15T06:20:49.365Z,10.56
2019-05-15T06:21:56.726Z,10.53
2019-05-15T06:22:48.781Z,10.66
2019-05-15T06:23:54.529Z,10.65
2019-05-15T06:24:48.700Z,10.65
2019-05-15T06:25:48.586Z,10.70
2019-05-15T06:26:48.314Z,10.83
2019-05-15T06:27:48.126Z,10.76
2019-05-15T06:28:49.079Z,10.83
2019-05-15T06:29:48.504Z,10.91
2019-05-15T06:30:48.642Z,10.94
2019-05-15T06:31:48.443Z,10.94
2019-05-15T06:33:01.970Z,11.03
2019-05-15T06:33:49.038Z,11.03
2019-05-15T06:34:48.588Z,11.09
2019-05-15T06:35:48.846Z,11.09
2019-05-15T06:36:48.553Z,11.16
2019-05-15T06:37:48.452Z,11.19
2019-05-15T06:38:48.422Z,11.14
2019-05-15T06:39:48.118Z,11.19
2019-05-15T06:40:48.592Z,11.27
2019-05-15T06:41:48.240Z,11.27
2019-05-15T06:42:48.406Z,11.29
2019-05-15T06:43:48.328Z,11.29
2019-05-15T06:44:48.363Z,11.25
2019-05-15T06:45:48.679Z,11.28
2019-05-15T06:46:48.349Z,11.20
2019-05-15T06:47:48.283Z,11.27
2019-05-15T06:48:48.637Z,11.35
2019-05-15T06:49:48.663Z,11.25
2019-05-15T06:50:48.926Z,11.31
2019-05-15T06:51:48.711Z,11.35
2019-05-15T06:52:48.629Z,11.35
2019-05-15T06:53:49.215Z,11.34
2019-05-15T06:54:48.541Z,11.39
2019-05-15T06:55:48.592Z,11.43
2019-05-15T06:56:49.251Z,11.47
2019-05-15T06:57:48.474Z,11.56
2019-05-15T06:58:48.720Z,11.54
2019-05-15T06:59:48.383Z,11.61
2019-05-15T07:00:48.814Z,11.64
2019-05-15T07:01:48.114Z,11.61
2019-05-15T07:02:48.691Z,11.68
2019-05-15T07:03:48.407Z,11.65
2019-05-15T07:04:48.789Z,11.68
2019-05-15T07:05:50.305Z,11.71
2019-05-15T07:06:48.964Z,11.72
2019-05-15T07:07:48.858Z,11.77
2019-05-15T07:08:49.605Z,11.80
2019-05-15T07:09:48.647Z,11.86
2019-05-15T07:10:48.680Z,11.82
2019-05-15T07:11:48.262Z,11.83
2019-05-15T07:12:50.994Z,11.75
2019-05-15T07:13:48.743Z,11.82
2019-05-15T07:14:48.744Z,11.87
2019-05-15T07:15:49.459Z,11.85
2019-05-15T07:16:48.790Z,11.80
2019-05-15T07:17:48.421Z,11.85
2019-05-15T07:18:48.499Z,11.89
2019-05-15T07:19:48.504Z,11.89
2019-05-15T07:20:48.838Z,11.96
2019-05-15T07:21:48.711Z,12.04
2019-05-15T07:22:49.113Z,12.05
2019-05-15T07:23:49.568Z,12.08
2019-05-15T07:24:47.820Z,12.20
2019-05-15T07:25:49.858Z,12.20
2019-05-15T07:26:48.375Z,12.19
2019-05-15T07:27:47.895Z,12.21
2019-05-15T07:28:48.568Z,12.37
2019-05-15T07:29:48.742Z,12.30
2019-05-15T07:30:49.498Z,12.37
2019-05-15T07:31:47.793Z,12.34
2019-05-15T07:32:48.717Z,12.38
2019-05-15T07:33:49.108Z,12.38
2019-05-15T07:34:48.392Z,12.37
2019-05-15T07:35:49.393Z,12.38
2019-05-15T07:36:49.192Z,12.44
2019-05-15T07:37:47.875Z,12.44
2019-05-15T07:38:48.512Z,12.51
2019-05-15T07:39:48.758Z,12.46
2019-05-15T07:40:55.483Z,12.46
2019-05-15T07:41:48.452Z,12.34
2019-05-15T07:42:48.994Z,12.45
2019-05-15T07:43:49.217Z,12.45
2019-05-15T07:44:48.186Z,12.56
2019-05-15T07:45:53.786Z,12.59
2019-05-15T07:46:48.848Z,12.69
2019-05-15T07:47:48.978Z,12.64
2019-05-15T07:48:49.107Z,12.74
2019-05-15T07:49:49.105Z,12.82
2019-05-15T07:50:49.330Z,12.79
2019-05-15T07:51:48.839Z,12.84
2019-05-15T07:52:48.540Z,12.81
2019-05-15T07:53:49.105Z,12.85
2019-05-15T07:54:48.795Z,12.84
2019-05-15T07:55:49.383Z,12.85
2019-05-15T07:56:48.782Z,12.81
2019-05-15T07:57:49.444Z,12.75
2019-05-15T07:58:52.105Z,12.82
2019-05-15T07:59:48.075Z,12.81
2019-05-15T08:00:49.071Z,12.81
2019-05-15T08:01:48.846Z,12.85
2019-05-15T08:02:48.058Z,12.78
2019-05-15T08:03:56.464Z,12.82
2019-05-15T08:04:48.246Z,12.81
2019-05-15T08:05:56.055Z,12.92
2019-05-15T08:06:49.031Z,12.93
2019-05-15T08:07:48.778Z,13.03
2019-05-15T08:08:48.575Z,13.07
2019-05-15T08:09:48.598Z,13.06
2019-05-15T08:10:49.029Z,13.09
2019-05-15T08:11:48.669Z,13.18
2019-05-15T08:12:49.270Z,13.25
2019-05-15T08:13:48.627Z,13.27
2019-05-15T08:14:48.301Z,13.29
2019-05-15T08:15:48.727Z,13.38
2019-05-15T08:16:48.550Z,13.41
2019-05-15T08:18:00.369Z,13.51
2019-05-15T08:18:48.430Z,13.54
2019-05-15T08:19:48.538Z,13.40
2019-05-15T08:20:48.632Z,13.55
2019-05-15T08:21:51.414Z,13.61
2019-05-15T08:22:48.924Z,13.56
2019-05-15T08:23:48.462Z,13.71
2019-05-15T08:24:48.438Z,13.73
2019-05-15T08:25:48.547Z,13.70
2019-05-15T08:26:48.502Z,13.83
2019-05-15T08:27:48.439Z,13.80
2019-05-15T08:28:48.505Z,13.83
2019-05-15T08:29:48.568Z,13.83
2019-05-15T08:30:49.016Z,13.84
2019-05-15T08:31:48.217Z,13.88
2019-05-15T08:32:49.209Z,13.87
2019-05-15T08:33:48.238Z,13.87
2019-05-15T08:34:48.062Z,13.88
2019-05-15T08:35:51.210Z,13.88
2019-05-15T08:36:48.230Z,13.87
2019-05-15T08:37:48.869Z,13.83
2019-05-15T08:38:48.433Z,13.81
2019-05-15T08:39:48.477Z,13.87
2019-05-15T08:40:48.595Z,13.81
2019-05-15T08:41:48.366Z,13.73
2019-05-15T08:42:54.485Z,13.65
2019-05-15T08:43:48.670Z,13.67
2019-05-15T08:44:46.209Z,13.80
2019-05-15T08:45:46.192Z,13.80
2019-05-15T08:46:47.978Z,13.80
2019-05-15T08:47:48.963Z,13.83
2019-05-15T08:48:46.160Z,13.89
2019-05-15T08:49:48.351Z,13.88
2019-05-15T08:50:48.386Z,13.91
2019-05-15T08:51:48.486Z,13.92
2019-05-15T08:52:48.528Z,13.98
2019-05-15T08:53:48.328Z,13.96
2019-05-15T08:54:48.543Z,14.09
2019-05-15T08:55:48.122Z,13.96
2019-05-15T08:56:48.404Z,13.96
2019-05-15T08:57:54.135Z,13.96
2019-05-15T08:58:48.608Z,14.01
2019-05-15T08:59:46.107Z,13.95
2019-05-15T09:00:46.138Z,14.01
2019-05-15T09:01:46.022Z,13.98
2019-05-15T09:02:46.007Z,13.95
2019-05-15T09:03:48.665Z,13.84
2019-05-15T09:04:48.494Z,13.81
2019-05-15T09:05:48.285Z,13.87
2019-05-15T09:06:49.462Z,13.84
2019-05-15T09:07:48.457Z,13.91
2019-05-15T09:08:45.953Z,13.98
2019-05-15T09:09:45.975Z,14.01
2019-05-15T09:10:45.954Z,14.02
2019-05-15T09:11:48.168Z,13.98
2019-05-15T09:12:45.907Z,13.98
2019-05-15T09:13:45.902Z,13.99
2019-05-15T09:14:45.923Z,14.07
2019-05-15T09:15:48.121Z,14.19
2019-05-15T09:16:45.860Z,14.09
2019-05-15T09:17:48.605Z,14.21
2019-05-15T09:18:48.341Z,14.27
2019-05-15T09:19:48.021Z,14.24
2019-05-15T09:20:45.819Z,14.27
2019-05-15T09:21:45.813Z,14.28
2019-05-15T09:22:45.798Z,14.28
2019-05-15T09:23:45.797Z,14.28
2019-05-15T09:24:45.827Z,14.38
2019-05-15T09:25:48.929Z,14.46
2019-05-15T09:26:48.497Z,14.43
2019-05-15T09:27:45.760Z,14.46
2019-05-15T09:28:45.733Z,14.46
2019-05-15T09:29:48.273Z,14.50
2019-05-15T09:30:48.125Z,14.56
2019-05-15T09:31:48.137Z,14.62
2019-05-15T09:32:48.142Z,14.60
2019-05-15T09:33:45.700Z,14.71
2019-05-15T09:34:53.950Z,14.72
2019-05-15T09:35:48.756Z,14.62
2019-05-15T09:36:48.413Z,14.68
2019-05-15T09:37:45.646Z,14.78
2019-05-15T09:38:45.625Z,14.74
2019-05-15T09:39:45.616Z,14.86
2019-05-15T09:40:46.658Z,14.75
2019-05-15T09:41:48.662Z,14.75
2019-05-15T09:42:45.585Z,14.80
2019-05-15T09:43:45.576Z,14.88
2019-05-15T09:44:45.652Z,14.90
2019-05-15T09:45:45.577Z,14.93
2019-05-15T09:46:45.594Z,14.98
2019-05-15T09:47:48.111Z,14.95
2019-05-15T09:48:50.482Z,14.98
2019-05-15T09:49:48.482Z,14.93
2019-05-15T09:50:45.504Z,14.98
2019-05-15T09:51:45.493Z,14.98
2019-05-15T09:52:45.508Z,15.03
2019-05-15T09:53:48.238Z,15.06
2019-05-15T09:54:45.486Z,15.11
2019-05-15T09:55:45.463Z,15.06
2019-05-15T09:56:49.108Z,14.88
2019-05-15T09:57:45.462Z,14.94
2019-05-15T09:58:45.414Z,14.95
2019-05-15T09:59:45.413Z,15.02
2019-05-15T10:00:50.832Z,15.01
2019-05-15T10:01:48.260Z,15.15
2019-05-15T10:02:48.321Z,15.11
2019-05-15T10:03:45.371Z,15.13
2019-05-15T10:04:45.359Z,15.11
2019-05-15T10:05:45.378Z,15.12
2019-05-15T10:06:45.369Z,15.13
2019-05-15T10:07:45.322Z,15.15
2019-05-15T10:08:45.306Z,15.09
2019-05-15T10:09:45.304Z,15.11
2019-05-15T10:10:45.321Z,15.09
2019-05-15T10:11:45.305Z,15.13
2019-05-15T10:12:45.317Z,15.13
2019-05-15T10:13:45.254Z,15.17
2019-05-15T10:14:45.249Z,15.20
2019-05-15T10:15:48.354Z,15.17
2019-05-15T10:16:48.112Z,15.19
2019-05-15T10:17:45.216Z,15.27
2019-05-15T10:18:45.198Z,15.23
2019-05-15T10:19:45.193Z,15.24
2019-05-15T10:20:45.176Z,15.39
2019-05-15T10:21:45.225Z,15.46
2019-05-15T10:22:45.160Z,15.48
2019-05-15T10:23:45.186Z,15.52
2019-05-15T10:24:45.149Z,15.48
2019-05-15T10:25:45.143Z,15.46
2019-05-15T10:26:45.121Z,15.54
2019-05-15T10:27:45.146Z,15.54
2019-05-15T10:28:45.093Z,15.61
2019-05-15T10:29:45.113Z,15.52
2019-05-15T10:30:45.129Z,15.60
2019-05-15T10:31:45.059Z,15.64
2019-05-15T10:32:45.090Z,15.70
2019-05-15T10:33:45.037Z,15.67
2019-05-15T10:34:45.075Z,15.74
2019-05-15T10:35:45.017Z,15.72
2019-05-15T10:36:45.050Z,15.81
2019-05-15T10:37:45.068Z,15.81
2019-05-15T10:38:45.097Z,15.96
2019-05-15T10:39:44.975Z,15.93
2019-05-15T10:41:00.070Z,15.89
2019-05-15T10:41:48.116Z,16.01
2019-05-15T10:42:44.993Z,15.94
2019-05-15T10:43:47.250Z,15.99
2019-05-15T10:44:45.925Z,16.03
2019-05-15T10:45:44.917Z,16.09
2019-05-15T10:46:44.908Z,16.12
2019-05-15T10:47:44.967Z,16.14
2019-05-15T10:48:44.897Z,16.20
2019-05-15T10:49:44.865Z,16.18
2019-05-15T10:50:44.877Z,16.14
2019-05-15T10:51:44.895Z,16.15
2019-05-15T10:52:44.840Z,16.27
2019-05-15T10:53:44.828Z,16.33
2019-05-15T10:54:44.810Z,16.37
2019-05-15T10:55:44.802Z,16.50
2019-05-15T10:56:44.865Z,16.58
2019-05-15T10:57:45.014Z,16.67
2019-05-15T10:58:44.779Z,16.73
2019-05-15T10:59:44.795Z,16.80
2019-05-15T11:00:44.802Z,16.80
2019-05-15T11:01:44.741Z,16.80
2019-05-15T11:02:44.737Z,16.75
2019-05-15T11:03:44.720Z,16.75
2019-05-15T11:04:44.738Z,16.70
2019-05-15T11:05:45.787Z,16.62
2019-05-15T11:06:44.715Z,16.62
2019-05-15T11:07:44.695Z,16.68
2019-05-15T11:08:44.673Z,16.71
2019-05-15T11:09:44.650Z,16.83
2019-05-15T11:10:44.680Z,16.93
2019-05-15T11:11:44.650Z,17.03
2019-05-15T11:12:44.620Z,16.92
2019-05-15T11:13:44.609Z,16.88
2019-05-15T11:14:44.599Z,16.95
2019-05-15T11:15:44.617Z,16.89
2019-05-15T11:16:44.580Z,17.03
2019-05-15T11:17:44.624Z,16.98
2019-05-15T11:18:44.556Z,16.96
2019-05-15T11:19:44.544Z,16.96
2019-05-15T11:20:44.559Z,16.90
2019-05-15T11:21:44.538Z,17.06
2019-05-15T11:22:44.740Z,16.90
2019-05-15T11:23:44.501Z,16.92
2019-05-15T11:24:44.525Z,16.90
2019-05-15T11:25:44.477Z,16.90
2019-05-15T11:26:44.483Z,16.96
2019-05-15T11:27:44.483Z,16.92
2019-05-15T11:28:44.452Z,16.81
2019-05-15T11:29:44.444Z,16.93
2019-05-15T11:30:44.435Z,16.88
2019-05-15T11:31:44.444Z,16.89
2019-05-15T11:32:44.403Z,16.95
2019-05-15T11:33:44.394Z,16.89
2019-05-15T11:34:44.431Z,16.86
2019-05-15T11:35:58.167Z,16.85
2019-05-15T11:36:45.360Z,16.88
2019-05-15T11:37:46.600Z,16.90
2019-05-15T11:38:44.339Z,16.90
2019-05-15T11:39:46.506Z,16.93
2019-05-15T11:40:44.353Z,16.95
2019-05-15T11:41:44.318Z,16.93
2019-05-15T11:42:44.303Z,16.89
2019-05-15T11:43:44.291Z,16.92
2019-05-15T11:44:44.317Z,16.90
2019-05-15T11:45:44.273Z,16.92
2019-05-15T11:46:44.263Z,16.92
2019-05-15T11:47:44.288Z,16.89
2019-05-15T11:48:44.265Z,16.85
2019-05-15T11:49:44.275Z,16.89
2019-05-15T11:50:44.221Z,16.75
2019-05-15T11:51:44.210Z,16.77
2019-05-15T11:52:44.214Z,16.71
2019-05-15T11:53:44.196Z,16.67
2019-05-15T11:54:44.204Z,16.65
2019-05-15T11:55:44.199Z,16.59
2019-05-15T11:56:44.159Z,16.70
2019-05-15T11:57:47.592Z,16.60
2019-05-15T11:58:45.135Z,16.65
2019-05-15T11:59:45.819Z,16.68
2019-05-15T12:00:44.149Z,16.74
2019-05-15T12:01:44.127Z,16.75
2019-05-15T12:02:44.108Z,16.75
2019-05-15T12:03:44.094Z,16.77
2019-05-15T12:04:44.067Z,16.73
2019-05-15T12:05:44.091Z,16.71
2019-05-15T12:06:58.168Z,16.68
2019-05-15T12:07:47.896Z,16.74
2019-05-15T12:08:44.033Z,16.67
2019-05-15T12:09:44.025Z,16.70
2019-05-15T12:10:44.004Z,16.68
2019-05-15T12:11:44.046Z,16.59
2019-05-15T12:12:43.993Z,16.50
2019-05-15T12:13:43.983Z,16.45
2019-05-15T12:14:43.970Z,16.45
2019-05-15T12:15:44.014Z,16.49
2019-05-15T12:17:00.948Z,16.62
2019-05-15T12:17:44.947Z,16.70
2019-05-15T12:18:43.981Z,16.70
2019-05-15T12:19:43.908Z,16.67
2019-05-15T12:20:43.897Z,16.59
2019-05-15T12:21:43.934Z,16.60
2019-05-15T12:22:43.922Z,16.62
2019-05-15T12:23:43.880Z,16.63
2019-05-15T12:24:43.890Z,16.67
2019-05-15T12:25:43.864Z,16.71
2019-05-15T12:26:43.850Z,16.74
2019-05-15T12:27:43.987Z,16.74
2019-05-15T12:28:43.819Z,16.74
2019-05-15T12:29:43.821Z,16.75
2019-05-15T12:30:43.829Z,16.74
2019-05-15T12:31:43.829Z,16.75
2019-05-15T12:32:43.820Z,16.89
2019-05-15T12:33:43.764Z,16.93
2019-05-15T12:34:43.806Z,16.93
2019-05-15T12:35:43.759Z,16.99
2019-05-15T12:37:44.752Z,17.03
2019-05-15T12:38:43.714Z,17.06
2019-05-15T12:39:43.731Z,17.00
2019-05-15T12:59:44.858Z,17.22
2019-05-15T13:00:43.777Z,17.28
2019-05-15T13:01:43.493Z,17.32
2019-05-15T13:02:43.506Z,17.26
2019-05-15T13:03:43.478Z,17.36
2019-05-15T13:04:43.449Z,17.32
2019-05-15T13:05:43.450Z,17.36
2019-05-15T13:06:49.406Z,17.43
2019-05-15T13:07:44.455Z,17.41
2019-05-15T13:08:43.427Z,17.53
2019-05-15T13:09:43.399Z,17.51
2019-05-15T13:10:43.422Z,17.43
2019-05-15T13:11:43.394Z,17.47
2019-05-15T13:12:59.333Z,17.50
2019-05-15T13:13:44.351Z,17.54
2019-05-15T13:14:43.366Z,17.55
2019-05-15T13:15:43.372Z,17.59
2019-05-15T13:16:43.328Z,17.54
2019-05-15T13:17:43.305Z,17.57
2019-05-15T13:18:43.303Z,17.54
2019-05-15T13:19:43.289Z,17.46
2019-05-15T13:20:43.298Z,17.54
2019-05-15T13:21:43.362Z,17.47
2019-05-15T13:22:43.268Z,17.46
2019-05-15T13:23:43.278Z,17.54
2019-05-15T13:24:43.277Z,17.47
2019-05-15T13:25:43.344Z,17.48
2019-05-15T13:26:43.471Z,17.46
2019-05-15T13:27:43.219Z,17.54
2019-05-15T13:28:43.191Z,17.46
2019-05-15T13:29:43.200Z,17.47
2019-05-15T13:30:43.273Z,17.48
2019-05-15T13:31:43.204Z,17.59
2019-05-15T13:32:43.148Z,17.66
2019-05-15T13:33:43.172Z,17.69
2019-05-15T13:34:43.139Z,17.79
2019-05-15T13:35:45.573Z,17.82
2019-05-15T13:36:43.157Z,17.79
2019-05-15T13:37:43.100Z,17.78
2019-05-15T13:38:43.132Z,17.76
2019-05-15T13:39:43.150Z,17.82
2019-05-15T13:40:43.065Z,17.82
2019-05-15T13:41:43.090Z,17.87
2019-05-15T13:42:43.093Z,17.85
2019-05-15T13:43:43.034Z,17.91
2019-05-15T13:44:43.048Z,17.82
2019-05-15T13:45:43.014Z,17.94
2019-05-15T13:46:43.012Z,17.89
2019-05-15T13:47:43.031Z,17.85
2019-05-15T13:48:43.057Z,17.88
2019-05-15T13:49:43.003Z,18.00
2019-05-15T13:50:42.981Z,18.00
2019-05-15T13:51:42.980Z,17.95
2019-05-15T13:52:42.954Z,17.95
2019-05-15T13:53:43.005Z,18.04
2019-05-15T13:54:42.927Z,18.06
2019-05-15T13:55:43.175Z,18.10
2019-05-15T13:56:42.924Z,18.12
2019-05-15T13:57:42.886Z,18.09
2019-05-15T13:58:42.921Z,18.10
2019-05-15T13:59:42.873Z,18.12
2019-05-15T14:00:42.871Z,18.10
2019-05-15T14:01:42.844Z,18.09
2019-05-15T14:02:42.873Z,18.21
2019-05-15T14:03:42.832Z,18.21
2019-05-15T14:04:42.849Z,18.25
2019-05-15T14:05:45.097Z,18.24
2019-05-15T14:06:42.823Z,18.04
2019-05-15T14:07:49.377Z,18.18
2019-05-15T14:08:43.800Z,18.07
2019-05-15T14:09:44.638Z,18.24
2019-05-15T14:10:42.800Z,18.24
2019-05-15T14:11:43.795Z,18.12
2019-05-15T14:12:42.728Z,18.18
2019-05-15T14:13:42.846Z,18.12
2019-05-15T14:14:42.703Z,18.10
2019-05-15T14:15:42.729Z,18.13
2019-05-15T14:16:43.176Z,18.12
2019-05-15T14:17:42.689Z,18.25
2019-05-15T14:18:42.766Z,18.19
2019-05-15T14:19:42.673Z,18.27
2019-05-15T14:20:42.704Z,18.25
2019-05-15T14:21:42.833Z,18.22
2019-05-15T14:22:42.666Z,18.18
2019-05-15T14:23:42.885Z,18.22
2019-05-15T14:24:42.726Z,18.13
2019-05-15T14:25:42.617Z,18.22
2019-05-15T14:26:42.617Z,18.13
2019-05-15T14:27:42.868Z,18.10
2019-05-15T14:28:42.672Z,18.13
2019-05-15T14:29:42.657Z,18.04
2019-05-15T14:30:42.596Z,17.97
2019-05-15T14:31:42.557Z,17.97
2019-05-15T14:32:42.533Z,17.91
2019-05-15T14:33:42.513Z,17.97
2019-05-15T14:34:42.502Z,17.84
2019-05-15T14:35:42.522Z,17.99
2019-05-15T14:36:42.549Z,17.97
2019-05-15T14:37:42.479Z,17.95
2019-05-15T14:38:42.467Z,17.95
2019-05-15T14:39:42.464Z,17.95
2019-05-15T14:40:42.437Z,17.99
2019-05-15T14:41:42.969Z,18.00
2019-05-15T14:42:42.451Z,17.97
2019-05-15T14:43:42.542Z,17.91
2019-05-15T14:44:42.399Z,17.99
2019-05-15T14:45:42.408Z,17.99
2019-05-15T14:46:42.458Z,17.95
2019-05-15T14:47:42.366Z,17.89
2019-05-15T14:48:42.358Z,17.88
2019-05-15T14:49:45.059Z,17.88
2019-05-15T14:50:42.439Z,17.81
2019-05-15T14:51:42.327Z,17.85
2019-05-15T14:52:42.326Z,17.88
2019-05-15T14:53:42.313Z,17.79
2019-05-15T14:54:42.330Z,17.81
2019-05-15T14:55:44.241Z,17.88
2019-05-15T14:56:42.277Z,17.88
2019-05-15T14:57:42.260Z,17.87
2019-05-15T14:58:42.265Z,17.97
2019-05-15T14:59:42.289Z,17.94
2019-05-15T15:00:42.513Z,18.02
2019-05-15T15:01:42.234Z,18.10
2019-05-15T15:02:42.280Z,18.04
2019-05-15T15:03:42.304Z,18.07
2019-05-15T15:04:42.215Z,17.99
2019-05-15T15:05:42.179Z,17.97
2019-05-15T15:06:42.194Z,17.95
2019-05-15T15:07:42.176Z,17.95
2019-05-15T15:08:42.167Z,17.95
2019-05-15T15:09:42.135Z,17.99
2019-05-15T15:10:42.161Z,18.02
2019-05-15T15:11:42.119Z,18.15
2019-05-15T15:12:42.457Z,18.10
2019-05-15T15:13:43.248Z,18.10
2019-05-15T15:14:42.092Z,18.02
2019-05-15T15:15:42.416Z,17.99
2019-05-15T15:16:42.062Z,18.04
2019-05-15T15:17:42.060Z,17.99
2019-05-15T15:18:42.078Z,17.95
2019-05-15T15:19:42.032Z,17.92
2019-05-15T15:20:42.072Z,17.94
2019-05-15T15:21:42.040Z,18.09
2019-05-15T15:22:42.035Z,18.15
2019-05-15T15:23:41.998Z,18.12
2019-05-15T15:24:41.980Z,18.09
2019-05-15T15:25:41.969Z,18.18
2019-05-15T15:26:41.998Z,18.17
2019-05-15T15:27:41.989Z,18.19
2019-05-15T15:28:41.958Z,18.10
2019-05-15T15:29:41.995Z,18.07
2019-05-15T15:30:41.920Z,18.18
2019-05-15T15:31:41.944Z,18.10
2019-05-15T15:32:41.909Z,18.07
2019-05-15T15:33:41.908Z,18.15
2019-05-15T15:34:41.914Z,18.04
2019-05-15T15:35:41.872Z,18.12
2019-05-15T15:36:41.863Z,18.13
2019-05-15T15:37:41.868Z,18.09
2019-05-15T15:38:44.145Z,18.15
2019-05-15T15:39:41.823Z,18.13
2019-05-15T15:40:41.813Z,18.10
2019-05-15T15:41:41.803Z,18.10
2019-05-15T15:42:41.865Z,18.13
2019-05-15T15:43:41.847Z,18.10
2019-05-15T15:44:41.795Z,18.13
2019-05-15T15:45:41.763Z,18.02
2019-05-15T15:46:41.809Z,18.09
2019-05-15T15:47:41.889Z,18.06
2019-05-15T15:48:41.798Z,18.12
2019-05-15T15:49:41.754Z,18.13
2019-05-15T15:50:41.819Z,18.10
2019-05-15T15:51:41.710Z,18.06
2019-05-15T15:52:41.743Z,18.18
2019-05-15T15:53:41.729Z,18.21
2019-05-15T15:54:41.669Z,18.21
2019-05-15T15:55:41.661Z,18.28
2019-05-15T15:56:42.290Z,18.27
2019-05-15T15:57:41.678Z,18.33
2019-05-15T15:58:41.708Z,18.24
2019-05-15T15:59:42.639Z,18.25
2019-05-15T16:00:41.643Z,18.31
2019-05-15T16:01:41.597Z,18.28
2019-05-15T16:02:42.692Z,18.33
2019-05-15T16:03:41.629Z,18.33
2019-05-15T16:04:41.566Z,18.25
2019-05-15T16:05:41.665Z,18.31
2019-05-15T16:06:41.572Z,18.28
2019-05-15T16:07:43.493Z,18.31
2019-05-15T16:08:52.178Z,18.39
2019-05-15T16:09:42.589Z,18.40
2019-05-15T16:10:41.531Z,18.39
2019-05-15T16:11:41.608Z,18.28
2019-05-15T16:12:41.494Z,18.34
2019-05-15T16:13:41.536Z,18.34
2019-05-15T16:14:41.991Z,18.29
2019-05-15T16:15:42.192Z,18.31
2019-05-15T16:16:41.468Z,18.36
2019-05-15T16:17:41.568Z,18.43
2019-05-15T16:18:41.563Z,18.40
2019-05-15T16:19:41.801Z,18.42
2019-05-15T16:20:42.276Z,18.49
2019-05-15T16:21:41.418Z,18.43
2019-05-15T16:22:43.111Z,18.37
2019-05-15T16:23:42.406Z,18.36
2019-05-15T16:24:41.617Z,18.43
2019-05-15T16:25:41.389Z,18.36
2019-05-15T16:26:41.420Z,18.33
2019-05-15T16:27:41.929Z,18.47
2019-05-15T16:28:41.315Z,18.42
2019-05-15T16:29:41.340Z,18.40
2019-05-15T16:30:51.106Z,18.43
2019-05-15T16:31:44.061Z,18.46
2019-05-15T16:32:42.450Z,18.49
2019-05-15T16:33:41.261Z,18.55
2019-05-15T16:34:41.255Z,18.64
2019-05-15T16:35:43.018Z,18.52
2019-05-15T16:36:41.417Z,18.59
2019-05-15T16:37:41.235Z,18.47
2019-05-15T16:38:42.346Z,18.49
2019-05-15T16:39:41.324Z,18.52
2019-05-15T16:40:41.214Z,18.59
2019-05-15T16:41:41.276Z,18.61
2019-05-15T16:42:41.514Z,18.73
2019-05-15T16:43:41.174Z,18.67
2019-05-15T16:44:41.150Z,18.80
2019-05-15T16:45:41.281Z,18.90
2019-05-15T16:46:41.175Z,18.90
2019-05-15T16:47:41.556Z,18.95
2019-05-15T16:48:41.115Z,18.99
2019-05-15T16:49:41.223Z,18.97
2019-05-15T16:50:41.129Z,19.02
2019-05-15T16:51:41.133Z,19.01
2019-05-15T16:52:41.976Z,19.01
2019-05-15T16:53:41.278Z,18.98
2019-05-15T16:54:41.208Z,19.01
2019-05-15T16:55:41.051Z,19.06
2019-05-15T16:56:41.083Z,19.05
2019-05-15T16:57:41.043Z,19.05
2019-05-15T16:58:41.000Z,19.06
2019-05-15T16:59:41.089Z,19.23
2019-05-15T17:00:41.000Z,19.20
2019-05-15T17:01:40.964Z,19.31
2019-05-15T17:02:40.998Z,19.33
2019-05-15T17:03:40.944Z,19.39
2019-05-15T17:04:40.976Z,19.33
2019-05-15T17:05:42.474Z,19.31
2019-05-15T17:06:40.913Z,19.46
2019-05-15T17:07:40.901Z,19.46
2019-05-15T17:08:40.943Z,19.51
2019-05-15T17:09:40.879Z,19.51
2019-05-15T17:10:40.872Z,19.63
2019-05-15T17:11:40.881Z,19.68
2019-05-15T17:12:40.851Z,19.63
2019-05-15T17:13:40.871Z,19.72
2019-05-15T17:14:40.895Z,19.84
2019-05-15T17:15:40.814Z,19.91
2019-05-15T17:16:40.829Z,19.86
2019-05-15T17:17:40.799Z,20.00
2019-05-15T17:18:48.675Z,19.93
2019-05-15T17:19:40.777Z,19.97
2019-05-15T17:20:40.958Z,19.93
2019-05-15T17:21:40.833Z,19.97
2019-05-15T17:22:40.824Z,19.95
2019-05-15T17:23:40.816Z,20.06
2019-05-15T17:24:40.780Z,20.08
2019-05-15T17:25:40.706Z,20.16
2019-05-15T17:26:40.727Z,20.12
2019-05-15T17:27:40.684Z,20.12
2019-05-15T17:28:40.735Z,20.13
2019-05-15T17:29:40.685Z,20.10
2019-05-15T17:30:40.648Z,20.05
2019-05-15T17:31:40.647Z,20.03
2019-05-15T17:32:40.961Z,20.06
2019-05-15T17:33:40.660Z,20.03
2019-05-15T17:34:40.651Z,20.10
2019-05-15T17:35:40.596Z,20.03
2019-05-15T17:36:40.587Z,20.05
2019-05-15T17:37:40.581Z,19.98
2019-05-15T17:38:40.581Z,20.02
2019-05-15T17:39:41.737Z,20.03
2019-05-15T17:40:40.544Z,19.98
2019-05-15T17:41:40.532Z,19.97
2019-05-15T17:42:40.531Z,20.08
2019-05-15T17:43:40.512Z,19.97
2019-05-15T17:44:40.562Z,19.90
2019-05-15T17:45:40.503Z,19.84
2019-05-15T17:46:40.494Z,19.84
2019-05-15T17:47:40.830Z,19.83
2019-05-15T17:48:40.484Z,19.87
2019-05-15T17:49:40.488Z,19.75
2019-05-15T17:50:48.649Z,19.86
2019-05-15T17:51:44.491Z,19.91
2019-05-15T17:52:40.416Z,19.90
2019-05-15T17:53:40.412Z,19.91
2019-05-15T17:54:40.487Z,19.76
2019-05-15T17:55:40.423Z,19.80
2019-05-15T17:56:40.386Z,19.78
2019-05-15T17:57:40.365Z,19.79
2019-05-15T17:58:40.365Z,19.75
2019-05-15T17:59:40.391Z,19.72
2019-05-15T18:00:40.379Z,19.72
2019-05-15T18:01:40.436Z,19.66
2019-05-15T18:02:40.339Z,19.72
2019-05-15T18:03:40.329Z,19.68
2019-05-15T18:04:40.323Z,19.66
2019-05-15T18:05:40.284Z,19.73
2019-05-15T18:06:40.279Z,19.68
2019-05-15T18:07:40.304Z,19.66
2019-05-15T18:08:40.314Z,19.66
2019-05-15T18:09:50.279Z,19.47
2019-05-15T18:10:41.225Z,19.40
2019-05-15T18:11:40.213Z,19.46
2019-05-15T18:12:40.248Z,19.47
2019-05-15T18:13:40.202Z,19.46
2019-05-15T18:14:40.185Z,19.48
2019-05-15T18:15:40.216Z,19.43
2019-05-15T18:16:40.174Z,19.32
2019-05-15T18:17:41.484Z,19.39
2019-05-15T18:18:40.142Z,19.31
2019-05-15T18:19:40.134Z,19.35
2019-05-15T18:20:40.153Z,19.20
2019-05-15T18:21:40.121Z,19.13
2019-05-15T18:22:40.108Z,19.14
2019-05-15T18:23:40.088Z,19.05
2019-05-15T18:24:40.112Z,18.94
2019-05-15T18:25:40.081Z,18.87
2019-05-15T18:26:40.067Z,18.87
2019-05-15T18:27:40.051Z,18.76
2019-05-15T18:28:40.041Z,18.72
2019-05-15T18:29:40.929Z,18.58
2019-05-15T18:30:40.018Z,18.55
2019-05-15T18:31:40.007Z,18.42
2019-05-15T18:32:40.001Z,18.34
2019-05-15T18:33:53.064Z,18.24
2019-05-15T18:34:41.106Z,18.28
2019-05-15T18:35:39.989Z,18.21
2019-05-15T18:36:39.988Z,18.24
2019-05-15T18:37:39.936Z,18.07
2019-05-15T18:38:39.967Z,18.07
2019-05-15T18:39:39.915Z,17.99
2019-05-15T18:40:39.932Z,17.99
2019-05-15T18:41:39.891Z,17.95
2019-05-15T18:42:39.886Z,17.95
2019-05-15T18:43:39.896Z,17.85
2019-05-15T18:44:39.873Z,17.85
2019-05-15T18:45:39.851Z,17.76
2019-05-15T18:46:39.838Z,17.81
2019-05-15T18:47:39.847Z,17.74
2019-05-15T18:48:39.851Z,17.69
2019-05-15T18:49:39.812Z,17.66
2019-05-15T18:50:39.797Z,17.59
2019-05-15T18:51:39.792Z,17.50
2019-05-15T18:52:39.788Z,17.47
2019-05-15T18:53:39.807Z,17.35
2019-05-15T18:54:39.753Z,17.33
2019-05-15T18:55:39.771Z,17.26
2019-05-15T18:56:39.740Z,17.23
2019-05-15T18:57:39.797Z,17.17
2019-05-15T18:58:39.827Z,17.17
2019-05-15T18:59:39.739Z,17.07
2019-05-15T19:00:40.104Z,17.10
2019-05-15T19:01:39.704Z,17.07
2019-05-15T19:02:39.802Z,17.10
2019-05-15T19:03:39.701Z,16.99
2019-05-15T19:04:39.688Z,16.93
2019-05-15T19:05:39.646Z,16.78
2019-05-15T19:06:39.641Z,16.93
2019-05-15T19:07:39.621Z,16.78
2019-05-15T19:08:39.609Z,16.80
2019-05-15T19:09:39.635Z,16.86
2019-05-15T19:10:39.604Z,16.77
2019-05-15T19:11:39.577Z,16.78
2019-05-15T19:12:39.637Z,16.74
2019-05-15T19:13:39.585Z,16.70